TVF86SR LFPO-DAAE

Flight info

Callsign TVF86SR
Flight time 1h 55m
Altitude 35000
Route MONOT DCT KUSEK DCT KOTIS DCT KUKOR DCT LABAL DCT YAQEL DCT NAKIS DCT DIVKO UM154 OBLAD DCT RISEP DCT BOURI DCT PAGRE
Aircraft B738/M-SDE2E3FGHIRWXY/LB1

Departure

Time 2026-04-07 11:54
Airport Paris-Orly Airport (LFPO)

Arrival

Time 2026-04-07 13:49
Airport Soummam–Abane Ramdane Airport (DAAE)
Time Latitude Longitude Altitude Speed Heading
2026-04-07 11:41 48.73076 2.37596 290 ft 0 kts 229°
2026-04-07 11:46 48.73085 2.37611 290 ft 4 kts 229°
2026-04-07 11:46 48.73103 2.37641 289 ft 4 kts 227°
2026-04-07 11:46 48.73121 2.37671 288 ft 4 kts 225°
2026-04-07 11:46 48.73141 2.37699 289 ft 4 kts 214°
2026-04-07 11:47 48.73161 2.37713 291 ft 4 kts 153°
2026-04-07 11:47 48.73165 2.37721 291 ft 0 kts 74°
2026-04-07 11:48 48.73167 2.37733 289 ft 4 kts 74°
2026-04-07 11:48 48.73182 2.37814 287 ft 12 kts 74°
2026-04-07 11:48 48.73171 2.37931 287 ft 12 kts 148°
2026-04-07 11:48 48.73089 2.37908 285 ft 13 kts 199°
2026-04-07 11:49 48.72984 2.37855 285 ft 18 kts 198°
2026-04-07 11:49 48.72869 2.37798 287 ft 17 kts 198°
2026-04-07 11:49 48.72790 2.37689 290 ft 16 kts 252°
2026-04-07 11:49 48.72762 2.37518 290 ft 17 kts 256°
2026-04-07 11:50 48.72731 2.37349 289 ft 16 kts 253°
2026-04-07 11:50 48.72700 2.37187 287 ft 16 kts 256°
2026-04-07 11:50 48.72672 2.37030 290 ft 15 kts 253°
2026-04-07 11:50 48.72643 2.36881 287 ft 14 kts 253°
2026-04-07 11:51 48.72608 2.36739 287 ft 15 kts 251°
2026-04-07 11:51 48.72543 2.36613 288 ft 17 kts 191°
2026-04-07 11:51 48.72472 2.36512 290 ft 16 kts 257°
2026-04-07 11:51 48.72441 2.36333 290 ft 19 kts 252°
2026-04-07 11:52 48.72325 2.36290 287 ft 19 kts 156°
2026-04-07 11:52 48.72237 2.36427 289 ft 18 kts 120°
2026-04-07 11:52 48.72149 2.36549 287 ft 18 kts 157°
2026-04-07 11:52 48.72097 2.36582 293 ft 4 kts 157°
2026-04-07 11:53 48.72080 2.36613 290 ft 4 kts 83°
2026-04-07 11:53 48.72083 2.36625 289 ft 0 kts 73°
2026-04-07 11:53 48.72091 2.36667 292 ft 26 kts 74°
2026-04-07 11:53 48.72225 2.37374 284 ft 111 kts 75°
2026-04-07 11:54 48.72486 2.38835 416 ft 169 kts 76°
2026-04-07 11:54 48.72816 2.40612 1348 ft 175 kts 75°
2026-04-07 11:54 48.73152 2.42374 2456 ft 181 kts 78°
2026-04-07 11:54 48.73491 2.44340 3146 ft 198 kts 79°
2026-04-07 11:55 48.73813 2.46314 4204 ft 188 kts 77°
2026-04-07 11:55 48.74062 2.48318 4858 ft 206 kts 87°
2026-04-07 11:55 48.74137 2.50638 5080 ft 234 kts 88°
2026-04-07 11:55 48.74228 2.53257 5327 ft 263 kts 88°
2026-04-07 11:56 48.74273 2.56095 5922 ft 275 kts 98°
2026-04-07 11:56 48.73565 2.58749 6760 ft 274 kts 129°
2026-04-07 11:56 48.72094 2.60537 7607 ft 274 kts 157°
2026-04-07 11:56 48.70231 2.61126 8420 ft 277 kts 180°
2026-04-07 11:57 48.68327 2.60838 9263 ft 279 kts 188°
2026-04-07 11:57 48.66370 2.60339 10124 ft 282 kts 189°
2026-04-07 11:57 48.64455 2.59814 10840 ft 289 kts 190°
2026-04-07 11:57 48.62392 2.59253 11043 ft 314 kts 189°
2026-04-07 11:58 48.60163 2.58658 11245 ft 337 kts 189°
2026-04-07 11:58 48.57792 2.58038 11633 ft 352 kts 189°
2026-04-07 11:58 48.55370 2.57414 12455 ft 352 kts 188°
2026-04-07 11:58 48.52933 2.56794 13161 ft 355 kts 188°
2026-04-07 11:59 48.50501 2.56179 14026 ft 356 kts 188°
2026-04-07 11:59 48.48040 2.55560 14693 ft 359 kts 189°
2026-04-07 11:59 48.45556 2.54938 15358 ft 363 kts 189°
2026-04-07 11:59 48.43050 2.54312 15993 ft 366 kts 189°
2026-04-07 12:00 48.40515 2.53680 16599 ft 371 kts 189°
2026-04-07 12:00 48.37989 2.53050 17253 ft 373 kts 190°
2026-04-07 12:00 48.35419 2.52410 17950 ft 375 kts 190°
2026-04-07 12:00 48.32837 2.51768 18607 ft 377 kts 190°
2026-04-07 12:01 48.30232 2.51121 19164 ft 380 kts 190°
2026-04-07 12:01 48.27613 2.50472 19700 ft 383 kts 190°
2026-04-07 12:01 48.24967 2.49816 20246 ft 386 kts 190°
2026-04-07 12:01 48.22311 2.49158 20804 ft 388 kts 190°
2026-04-07 12:02 48.19635 2.48496 21341 ft 391 kts 189°
2026-04-07 12:02 48.16942 2.47831 21869 ft 394 kts 189°
2026-04-07 12:02 48.14225 2.47160 22377 ft 397 kts 189°
2026-04-07 12:02 48.11489 2.46486 22882 ft 399 kts 189°
2026-04-07 12:03 48.08736 2.45882 23372 ft 402 kts 184°
2026-04-07 12:03 48.05933 2.46239 23814 ft 407 kts 168°
2026-04-07 12:03 48.03168 2.47159 24248 ft 408 kts 168°
2026-04-07 12:03 48.00410 2.48051 24640 ft 411 kts 169°
2026-04-07 12:04 47.97606 2.48933 25025 ft 413 kts 169°
2026-04-07 12:04 47.94782 2.49803 25403 ft 416 kts 169°
2026-04-07 12:04 47.91941 2.50668 25781 ft 418 kts 169°
2026-04-07 12:04 47.89085 2.51532 26151 ft 420 kts 169°
2026-04-07 12:05 47.86207 2.52401 26518 ft 423 kts 169°
2026-04-07 12:05 47.83316 2.53272 26860 ft 425 kts 169°
2026-04-07 12:05 47.80398 2.54152 27102 ft 430 kts 169°
2026-04-07 12:05 47.77451 2.55039 27416 ft 433 kts 169°
2026-04-07 12:06 47.74493 2.55930 27772 ft 434 kts 169°
2026-04-07 12:06 47.71528 2.56821 28112 ft 436 kts 168°
2026-04-07 12:06 47.68562 2.57930 28419 ft 439 kts 163°
2026-04-07 12:06 47.65651 2.59330 28726 ft 441 kts 162°
2026-04-07 12:07 47.62742 2.60808 29038 ft 443 kts 161°
2026-04-07 12:07 47.59815 2.62305 29339 ft 446 kts 161°
2026-04-07 12:07 47.56880 2.63790 29673 ft 446 kts 161°
2026-04-07 12:07 47.53944 2.65254 30152 ft 444 kts 162°
2026-04-07 12:08 47.51059 2.66676 30581 ft 442 kts 162°
2026-04-07 12:08 47.48145 2.68101 30955 ft 440 kts 162°
2026-04-07 12:08 47.45236 2.69518 31277 ft 440 kts 162°
2026-04-07 12:08 47.42328 2.70931 31606 ft 440 kts 162°
2026-04-07 12:09 47.39420 2.72344 31968 ft 438 kts 162°
2026-04-07 12:09 47.36526 2.73749 32329 ft 437 kts 162°
2026-04-07 12:09 47.33637 2.75150 32686 ft 436 kts 162°
2026-04-07 12:09 47.30758 2.76546 33065 ft 434 kts 162°
2026-04-07 12:10 47.27895 2.77933 33403 ft 433 kts 162°
2026-04-07 12:10 47.25035 2.79316 33705 ft 433 kts 162°
2026-04-07 12:10 47.22209 2.80680 34017 ft 432 kts 162°
2026-04-07 12:10 47.19357 2.82050 34320 ft 431 kts 162°
2026-04-07 12:11 47.16500 2.83418 34564 ft 431 kts 162°
2026-04-07 12:11 47.13646 2.84782 34791 ft 431 kts 162°
2026-04-07 12:11 47.10791 2.86146 35055 ft 430 kts 162°
2026-04-07 12:11 47.07941 2.87506 35180 ft 432 kts 162°
2026-04-07 12:12 47.02192 2.90247 35174 ft 434 kts 162°
2026-04-07 12:12 46.96482 2.92964 35179 ft 430 kts 162°
2026-04-07 12:13 46.90837 2.95644 35186 ft 428 kts 162°
2026-04-07 12:13 46.85177 2.98326 35182 ft 426 kts 162°
2026-04-07 12:14 46.79541 3.00990 35181 ft 426 kts 162°
2026-04-07 12:14 46.73891 3.03655 35176 ft 427 kts 162°
2026-04-07 12:15 46.68226 3.06321 35174 ft 428 kts 162°
2026-04-07 12:15 46.62538 3.08993 35180 ft 430 kts 162°
2026-04-07 12:16 46.56857 3.11656 35172 ft 432 kts 162°
2026-04-07 12:16 46.51112 3.14305 35176 ft 433 kts 162°
2026-04-07 12:17 46.45325 3.16856 35173 ft 435 kts 163°
2026-04-07 12:17 46.39520 3.19401 35175 ft 435 kts 163°
2026-04-07 12:18 46.33727 3.21950 35171 ft 435 kts 162°
2026-04-07 12:18 46.27968 3.24484 35182 ft 435 kts 162°
2026-04-07 12:19 46.22184 3.27025 35181 ft 434 kts 162°
2026-04-07 12:19 46.16400 3.29560 35186 ft 434 kts 162°
2026-04-07 12:20 46.10627 3.32084 35189 ft 433 kts 162°
2026-04-07 12:20 46.04857 3.34603 35182 ft 433 kts 162°
2026-04-07 12:21 46.01473 3.36088 35180 ft 432 kts 162°
2026-04-07 12:21 45.93894 3.39631 35173 ft 432 kts 161°
2026-04-07 12:22 45.88186 3.42330 35176 ft 431 kts 161°
2026-04-07 12:22 45.86292 3.43221 35174 ft 431 kts 161°
2026-04-07 12:23 45.76767 3.47670 35176 ft 431 kts 161°
2026-04-07 12:23 45.71063 3.50320 35184 ft 431 kts 161°
2026-04-07 12:24 45.65390 3.52952 35164 ft 431 kts 161°
2026-04-07 12:24 45.59672 3.55598 35168 ft 431 kts 161°
2026-04-07 12:25 45.53962 3.58236 35178 ft 431 kts 161°
2026-04-07 12:25 45.48247 3.60870 35183 ft 432 kts 161°
2026-04-07 12:26 45.42531 3.63499 35178 ft 432 kts 161°
2026-04-07 12:26 45.36820 3.66120 35178 ft 433 kts 161°
2026-04-07 12:27 45.31093 3.68743 35189 ft 433 kts 161°
2026-04-07 12:27 45.25315 3.71383 35185 ft 433 kts 161°
2026-04-07 12:28 45.19568 3.74005 35189 ft 434 kts 161°
2026-04-07 12:29 45.10986 3.77910 35246 ft 434 kts 161°
2026-04-07 12:29 45.05221 3.80524 35235 ft 435 kts 161°
2026-04-07 12:30 44.99444 3.82934 35204 ft 435 kts 162°
2026-04-07 12:30 44.93617 3.85253 35213 ft 434 kts 162°
2026-04-07 12:31 44.87796 3.87582 35217 ft 435 kts 162°
2026-04-07 12:31 44.81976 3.89926 35217 ft 435 kts 162°
2026-04-07 12:32 44.76187 3.92260 35230 ft 435 kts 162°
2026-04-07 12:32 44.70331 3.94617 35219 ft 435 kts 162°
2026-04-07 12:33 44.64542 3.96941 35241 ft 435 kts 162°
2026-04-07 12:33 44.58720 3.99274 35248 ft 435 kts 162°
2026-04-07 12:34 44.53099 4.01520 35259 ft 435 kts 161°
2026-04-07 12:34 44.47279 4.03843 35256 ft 435 kts 162°
2026-04-07 12:35 44.41464 4.06157 35260 ft 434 kts 162°
2026-04-07 12:35 44.36639 4.08076 35259 ft 434 kts 162°
2026-04-07 12:36 44.29898 4.10950 35262 ft 433 kts 158°
2026-04-07 12:36 44.24293 4.14027 35268 ft 432 kts 156°
2026-04-07 12:37 44.18738 4.17157 35263 ft 433 kts 156°
2026-04-07 12:37 44.13127 4.20262 35260 ft 435 kts 156°
2026-04-07 12:38 44.07485 4.23340 35271 ft 436 kts 156°
2026-04-07 12:38 44.01820 4.26415 35269 ft 437 kts 156°
2026-04-07 12:39 43.96149 4.29485 35271 ft 439 kts 156°
2026-04-07 12:39 43.90456 4.32561 35266 ft 440 kts 156°
2026-04-07 12:40 43.84728 4.35651 35268 ft 441 kts 156°
2026-04-07 12:40 43.78989 4.38741 35264 ft 442 kts 156°
2026-04-07 12:41 43.73252 4.41822 35265 ft 443 kts 156°
2026-04-07 12:41 43.67502 4.44905 35272 ft 443 kts 156°
2026-04-07 12:42 43.61749 4.47982 35266 ft 443 kts 156°
2026-04-07 12:42 43.56023 4.51040 35268 ft 444 kts 156°
2026-04-07 12:43 43.50264 4.54108 35266 ft 444 kts 157°
2026-04-07 12:43 43.44490 4.57178 35269 ft 444 kts 157°
2026-04-07 12:44 43.38717 4.60241 35272 ft 444 kts 156°
2026-04-07 12:44 43.32940 4.63301 35284 ft 445 kts 156°
2026-04-07 12:45 43.27151 4.66361 35270 ft 446 kts 156°
2026-04-07 12:45 43.21389 4.69401 35267 ft 447 kts 156°
2026-04-07 12:46 43.16520 4.71964 35265 ft 447 kts 156°
2026-04-07 12:46 43.09747 4.75524 35263 ft 449 kts 157°
2026-04-07 12:47 43.04894 4.78065 35269 ft 450 kts 158°
2026-04-07 12:47 42.97954 4.81218 35266 ft 453 kts 161°
2026-04-07 12:48 42.92905 4.83388 35263 ft 455 kts 160°
2026-04-07 12:48 42.86868 4.86038 35254 ft 456 kts 160°
2026-04-07 12:49 42.80823 4.88721 35266 ft 458 kts 160°
2026-04-07 12:49 42.74793 4.91395 35260 ft 459 kts 160°
2026-04-07 12:50 42.68717 4.94082 35260 ft 459 kts 160°
2026-04-07 12:50 42.62641 4.96769 35266 ft 459 kts 160°
2026-04-07 12:51 42.56539 4.99321 35246 ft 459 kts 167°
2026-04-07 12:51 42.50212 4.99996 35274 ft 459 kts 179°
2026-04-07 12:52 42.43992 5.00032 35260 ft 458 kts 179°
2026-04-07 12:52 42.37655 5.00103 35254 ft 458 kts 179°
2026-04-07 12:53 42.31287 5.00225 35257 ft 457 kts 179°
2026-04-07 12:53 42.24916 5.00364 35251 ft 458 kts 179°
2026-04-07 12:54 42.18540 5.00503 35256 ft 458 kts 179°
2026-04-07 12:54 42.12157 5.00639 35252 ft 459 kts 179°
2026-04-07 12:55 42.05758 5.00776 35244 ft 460 kts 180°
2026-04-07 12:55 41.99434 5.00910 35254 ft 461 kts 180°
2026-04-07 12:56 41.92971 5.01047 35252 ft 463 kts 180°
2026-04-07 12:56 41.86519 5.01184 35251 ft 464 kts 181°
2026-04-07 12:57 41.80053 5.01315 35248 ft 465 kts 181°
2026-04-07 12:57 41.73583 5.01292 35242 ft 465 kts 182°
2026-04-07 12:58 41.67145 5.01198 35241 ft 465 kts 182°
2026-04-07 12:58 41.60675 5.01115 35239 ft 464 kts 183°
2026-04-07 12:59 41.54206 5.01048 35237 ft 464 kts 183°
2026-04-07 12:59 41.47748 5.00989 35238 ft 463 kts 183°
2026-04-07 13:00 41.41318 5.00930 35236 ft 461 kts 183°
2026-04-07 13:00 41.34949 5.00872 35239 ft 460 kts 183°
2026-04-07 13:01 41.28556 5.00813 35241 ft 459 kts 183°
2026-04-07 13:01 41.22158 5.00754 35230 ft 458 kts 184°
2026-04-07 13:02 41.15796 5.00696 35235 ft 457 kts 184°
2026-04-07 13:02 41.09444 5.00637 35233 ft 456 kts 184°
2026-04-07 13:03 41.03122 5.00579 35233 ft 456 kts 184°
2026-04-07 13:03 40.96822 5.00521 35230 ft 455 kts 184°
2026-04-07 13:04 40.90492 5.00463 35231 ft 454 kts 184°
2026-04-07 13:04 40.84178 5.00406 35225 ft 454 kts 184°
2026-04-07 13:05 40.77856 5.00348 35218 ft 453 kts 183°
2026-04-07 13:05 40.71551 5.00291 35222 ft 453 kts 183°
2026-04-07 13:06 40.65289 5.00234 35223 ft 452 kts 183°
2026-04-07 13:06 40.58982 5.00176 35223 ft 452 kts 183°
2026-04-07 13:07 40.52681 5.00119 35223 ft 452 kts 183°
2026-04-07 13:07 40.46384 5.00063 35223 ft 452 kts 183°
2026-04-07 13:08 40.40096 5.00006 35220 ft 452 kts 183°
2026-04-07 13:08 40.33837 4.99950 35222 ft 452 kts 183°
2026-04-07 13:09 40.27541 4.99893 35215 ft 452 kts 183°
2026-04-07 13:09 40.21247 4.99837 35214 ft 452 kts 183°
2026-04-07 13:10 40.14966 4.99781 35215 ft 451 kts 183°
2026-04-07 13:10 40.08686 4.99725 35211 ft 451 kts 183°
2026-04-07 13:11 40.02413 4.99669 35211 ft 451 kts 183°
2026-04-07 13:11 39.96158 4.99613 35204 ft 450 kts 183°
2026-04-07 13:12 39.89892 4.99558 35199 ft 450 kts 183°
2026-04-07 13:12 39.83638 4.99502 35210 ft 449 kts 183°
2026-04-07 13:13 39.77388 4.99447 35208 ft 449 kts 183°
2026-04-07 13:13 39.71139 4.99392 35209 ft 448 kts 183°
2026-04-07 13:14 39.64945 4.99337 35200 ft 448 kts 183°
2026-04-07 13:14 39.58713 4.99291 35204 ft 448 kts 182°
2026-04-07 13:15 39.52479 4.99313 35201 ft 448 kts 182°
2026-04-07 13:15 39.46251 4.99355 35196 ft 448 kts 182°
2026-04-07 13:16 39.40014 4.99390 35203 ft 447 kts 182°
2026-04-07 13:16 39.33786 4.99419 35201 ft 447 kts 182°
2026-04-07 13:17 39.27555 4.99446 35199 ft 448 kts 182°
2026-04-07 13:17 39.21328 4.99473 35194 ft 448 kts 182°
2026-04-07 13:18 39.15132 4.99500 35200 ft 447 kts 182°
2026-04-07 13:18 39.08902 4.99527 35198 ft 447 kts 182°
2026-04-07 13:19 39.02671 4.99554 35198 ft 447 kts 182°
2026-04-07 13:19 38.96454 4.99581 35196 ft 447 kts 182°
2026-04-07 13:20 38.90272 4.99608 35199 ft 447 kts 182°
2026-04-07 13:20 38.84038 4.99635 35199 ft 447 kts 182°
2026-04-07 13:21 38.77814 4.99662 35190 ft 447 kts 182°
2026-04-07 13:21 38.71569 4.99687 34668 ft 453 kts 182°
2026-04-07 13:21 38.68426 4.99700 34079 ft 451 kts 182°
2026-04-07 13:22 38.65323 4.99714 33363 ft 451 kts 182°
2026-04-07 13:22 38.62152 4.99728 32852 ft 447 kts 182°
2026-04-07 13:22 38.59057 4.99743 32353 ft 443 kts 182°
2026-04-07 13:22 38.56030 4.99757 31891 ft 438 kts 182°
2026-04-07 13:23 38.53002 4.99771 31413 ft 434 kts 182°
2026-04-07 13:23 38.49985 4.99784 30960 ft 431 kts 182°
2026-04-07 13:23 38.47005 4.99797 30513 ft 427 kts 182°
2026-04-07 13:23 38.44037 4.99809 30029 ft 424 kts 182°
2026-04-07 13:24 38.41104 4.99822 29518 ft 420 kts 182°
2026-04-07 13:24 38.38195 4.99834 29059 ft 415 kts 182°
2026-04-07 13:24 38.35322 4.99846 28588 ft 411 kts 182°
2026-04-07 13:24 38.32477 4.99858 28134 ft 407 kts 182°
2026-04-07 13:25 38.29654 4.99870 27669 ft 404 kts 182°
2026-04-07 13:25 38.26858 4.99882 27219 ft 400 kts 182°
2026-04-07 13:25 38.24074 4.99894 26777 ft 397 kts 182°
2026-04-07 13:25 38.21321 4.99905 26339 ft 394 kts 182°
2026-04-07 13:26 38.18593 4.99916 25896 ft 391 kts 182°
2026-04-07 13:26 38.15880 4.99928 25473 ft 388 kts 182°
2026-04-07 13:26 38.13185 4.99939 25043 ft 386 kts 182°
2026-04-07 13:26 38.10507 4.99950 24616 ft 384 kts 182°
2026-04-07 13:27 38.07845 4.99962 24185 ft 382 kts 181°
2026-04-07 13:27 38.05188 4.99973 23756 ft 380 kts 181°
2026-04-07 13:27 38.02588 4.99984 23258 ft 378 kts 181°
2026-04-07 13:27 37.99973 4.99995 22789 ft 375 kts 181°
2026-04-07 13:28 37.97373 5.00003 22397 ft 371 kts 181°
2026-04-07 13:28 37.94794 5.00005 21991 ft 368 kts 181°
2026-04-07 13:28 37.92237 5.00003 21567 ft 365 kts 181°
2026-04-07 13:28 37.89702 5.00002 21154 ft 363 kts 181°
2026-04-07 13:29 37.87188 5.00000 20745 ft 360 kts 181°
2026-04-07 13:29 37.84686 5.00000 20333 ft 358 kts 181°
2026-04-07 13:29 37.82201 4.99999 19927 ft 356 kts 181°
2026-04-07 13:29 37.79728 4.99999 19530 ft 355 kts 181°
2026-04-07 13:30 37.77261 4.99999 19129 ft 353 kts 181°
2026-04-07 13:30 37.74807 4.99999 18732 ft 352 kts 181°
2026-04-07 13:30 37.72394 5.00002 18301 ft 351 kts 180°
2026-04-07 13:30 37.69958 5.00300 17829 ft 352 kts 169°
2026-04-07 13:31 37.67585 5.01083 17401 ft 350 kts 166°
2026-04-07 13:31 37.65246 5.01908 16978 ft 348 kts 166°
2026-04-07 13:31 37.62915 5.02735 16572 ft 346 kts 166°
2026-04-07 13:31 37.60622 5.03543 16173 ft 344 kts 166°
2026-04-07 13:32 37.58315 5.04351 15777 ft 342 kts 166°
2026-04-07 13:32 37.56027 5.05147 15388 ft 340 kts 166°
2026-04-07 13:32 37.53744 5.05938 14999 ft 339 kts 166°
2026-04-07 13:32 37.51477 5.06720 14610 ft 337 kts 166°
2026-04-07 13:33 37.49213 5.07500 14222 ft 336 kts 167°
2026-04-07 13:33 37.44745 5.09034 13404 ft 333 kts 166°
2026-04-07 13:33 37.42512 5.09800 13004 ft 331 kts 166°
2026-04-07 13:34 37.40300 5.10558 12600 ft 329 kts 166°
2026-04-07 13:34 37.38100 5.11312 12220 ft 326 kts 166°
2026-04-07 13:34 37.36647 5.11809 11971 ft 325 kts 166°
2026-04-07 13:34 37.34473 5.12553 11594 ft 322 kts 166°
2026-04-07 13:35 37.32323 5.13289 11226 ft 320 kts 166°
2026-04-07 13:35 37.30177 5.14022 10849 ft 318 kts 166°
2026-04-07 13:35 37.28064 5.14744 10687 ft 309 kts 166°
2026-04-07 13:35 37.26019 5.15443 10532 ft 300 kts 166°
2026-04-07 13:36 37.24038 5.16120 10414 ft 291 kts 166°
2026-04-07 13:36 37.22112 5.16777 10288 ft 282 kts 166°
2026-04-07 13:36 37.20238 5.17416 10147 ft 275 kts 166°
2026-04-07 13:36 37.18395 5.18043 9851 ft 273 kts 166°
2026-04-07 13:37 37.16563 5.18667 9574 ft 271 kts 166°
2026-04-07 13:37 37.14750 5.19283 9296 ft 269 kts 166°
2026-04-07 13:37 37.12946 5.19897 9019 ft 267 kts 166°
2026-04-07 13:37 37.11155 5.20505 8745 ft 265 kts 166°
2026-04-07 13:38 37.09381 5.21108 8476 ft 263 kts 166°
2026-04-07 13:38 37.07618 5.21707 8209 ft 262 kts 165°
2026-04-07 13:38 37.05882 5.22296 7945 ft 260 kts 165°
2026-04-07 13:38 37.04139 5.22888 7683 ft 259 kts 165°
2026-04-07 13:39 37.02399 5.23478 7419 ft 258 kts 165°
2026-04-07 13:39 37.00659 5.24068 7035 ft 262 kts 165°
2026-04-07 13:39 36.98905 5.24662 6778 ft 256 kts 165°
2026-04-07 13:39 36.97248 5.25224 6688 ft 237 kts 165°
2026-04-07 13:40 36.95701 5.25748 6578 ft 224 kts 165°
2026-04-07 13:40 36.94253 5.26239 6471 ft 211 kts 165°
2026-04-07 13:40 36.92837 5.26718 6179 ft 209 kts 165°
2026-04-07 13:40 36.91454 5.27186 5911 ft 205 kts 166°
2026-04-07 13:41 36.90082 5.27649 5599 ft 204 kts 166°
2026-04-07 13:41 36.88717 5.28111 5288 ft 203 kts 166°
2026-04-07 13:41 36.87366 5.28567 5102 ft 197 kts 168°
2026-04-07 13:41 36.86058 5.29011 5036 ft 194 kts 168°
2026-04-07 13:42 36.84761 5.29447 4957 ft 194 kts 168°
2026-04-07 13:42 36.83449 5.29888 4867 ft 195 kts 168°
2026-04-07 13:42 36.82135 5.30333 4782 ft 195 kts 168°
2026-04-07 13:42 36.80821 5.30776 4643 ft 197 kts 168°
2026-04-07 13:43 36.79489 5.31225 4444 ft 199 kts 167°
2026-04-07 13:43 36.78158 5.31673 4226 ft 197 kts 168°
2026-04-07 13:43 36.76849 5.32115 4027 ft 191 kts 168°
2026-04-07 13:43 36.75579 5.32370 3783 ft 179 kts 193°
2026-04-07 13:44 36.74671 5.31583 3755 ft 161 kts 242°
2026-04-07 13:44 36.74279 5.30263 3567 ft 163 kts 250°
2026-04-07 13:44 36.73967 5.28919 3351 ft 159 kts 252°
2026-04-07 13:44 36.73675 5.27606 3138 ft 157 kts 255°
2026-04-07 13:45 36.73472 5.26310 2933 ft 151 kts 258°
2026-04-07 13:45 36.73315 5.25043 2757 ft 142 kts 258°
2026-04-07 13:45 36.73173 5.23848 2548 ft 137 kts 259°
2026-04-07 13:45 36.73038 5.22699 2400 ft 133 kts 259°
2026-04-07 13:46 36.72901 5.21533 2208 ft 136 kts 259°
2026-04-07 13:46 36.72770 5.20407 2018 ft 125 kts 257°
2026-04-07 13:46 36.72651 5.19385 1862 ft 117 kts 257°
2026-04-07 13:46 36.72526 5.18349 1716 ft 124 kts 260°
2026-04-07 13:47 36.72399 5.17261 1557 ft 128 kts 260°
2026-04-07 13:47 36.72270 5.16154 1393 ft 126 kts 260°
2026-04-07 13:47 36.72147 5.15093 1206 ft 121 kts 262°
2026-04-07 13:47 36.72031 5.14066 1055 ft 121 kts 262°
2026-04-07 13:48 36.71902 5.13031 988 ft 119 kts 260°
2026-04-07 13:48 36.71784 5.11978 830 ft 125 kts 262°
2026-04-07 13:48 36.71636 5.10922 684 ft 123 kts 262°
2026-04-07 13:48 36.71542 5.09830 432 ft 128 kts 261°
2026-04-07 13:49 36.71402 5.08725 171 ft 131 kts 262°
2026-04-07 13:49 36.71272 5.07615 27 ft 121 kts 262°
2026-04-07 13:49 36.71167 5.06712 15 ft 88 kts 262°
2026-04-07 13:49 36.71117 5.06281 20 ft 24 kts 262°
2026-04-07 13:50 36.71092 5.06190 19 ft 10 kts 252°
2026-04-07 13:50 36.71123 5.06184 19 ft 10 kts 89°
2026-04-07 13:50 36.71120 5.06274 19 ft 15 kts 89°
2026-04-07 13:50 36.71136 5.06434 19 ft 19 kts 82°
2026-04-07 13:51 36.71154 5.06596 17 ft 19 kts 82°
2026-04-07 13:51 36.71172 5.06753 15 ft 18 kts 82°
2026-04-07 13:51 36.71194 5.06903 16 ft 17 kts 66°
2026-04-07 13:51 36.71256 5.06936 15 ft 0 kts 352°
2026-04-07 13:52 36.71289 5.06930 17 ft 8 kts 352°
2026-04-07 13:52 36.71344 5.06937 18 ft 8 kts 28°
2026-04-07 13:52 36.71367 5.06996 16 ft 8 kts 77°
2026-04-07 13:53 36.71376 5.07060 16 ft 7 kts 81°
2026-04-07 13:53 36.71384 5.07123 16 ft 7 kts 81°
2026-04-07 13:53 36.71394 5.07183 18 ft 7 kts 64°
2026-04-07 13:53 36.71438 5.07194 16 ft 7 kts 352°
2026-04-07 13:54 36.71448 5.07193 16 ft 0 kts 352°